sensor_id;sensor_type;location;lat;lon;timestamp;pressure;altitude;pressure_sealevel;temperature;humidity
46267;BME280;31998;48.798;15.066;2022-09-09T00:01:43;95610.03;;;8.92;100.00
46267;BME280;31998;48.798;15.066;2022-09-09T00:04:30;95602.53;;;8.94;100.00
46267;BME280;31998;48.798;15.066;2022-09-09T00:07:19;95599.00;;;8.99;100.00
46267;BME280;31998;48.798;15.066;2022-09-09T00:15:34;95588.03;;;8.95;100.00
46267;BME280;31998;48.798;15.066;2022-09-09T00:21:14;95591.13;;;8.74;100.00
46267;BME280;31998;48.798;15.066;2022-09-09T00:23:55;95587.63;;;8.78;100.00
46267;BME280;31998;48.798;15.066;2022-09-09T00:26:41;95593.88;;;8.68;100.00
46267;BME280;31998;48.798;15.066;2022-09-09T00:31:33;95598.19;;;8.64;100.00
46267;BME280;31998;48.798;15.066;2022-09-09T00:34:05;95594.16;;;8.67;100.00
46267;BME280;31998;48.798;15.066;2022-09-09T00:36:35;95593.09;;;8.68;100.00
46267;BME280;31998;48.798;15.066;2022-09-09T00:39:03;95578.16;;;8.52;100.00
46267;BME280;31998;48.798;15.066;2022-09-09T00:41:39;95587.78;;;8.58;100.00
46267;BME280;31998;48.798;15.066;2022-09-09T00:44:32;95586.09;;;8.67;100.00
46267;BME280;31998;48.798;15.066;2022-09-09T00:52:49;95588.44;;;8.39;100.00
46267;BME280;31998;48.798;15.066;2022-09-09T00:55:38;95591.97;;;8.30;100.00
46267;BME280;31998;48.798;15.066;2022-09-09T00:58:07;95583.44;;;8.23;100.00
46267;BME280;31998;48.798;15.066;2022-09-09T01:01:02;95593.28;;;8.37;100.00
46267;BME280;31998;48.798;15.066;2022-09-09T01:06:32;95600.03;;;8.25;100.00
46267;BME280;31998;48.798;15.066;2022-09-09T01:09:11;95595.97;;;8.32;100.00
46267;BME280;31998;48.798;15.066;2022-09-09T01:14:37;95590.75;;;8.56;100.00
46267;BME280;31998;48.798;15.066;2022-09-09T01:17:44;95594.38;;;8.36;100.00
46267;BME280;31998;48.798;15.066;2022-09-09T01:20:19;95597.16;;;8.16;100.00
46267;BME280;31998;48.798;15.066;2022-09-09T01:25:56;95598.25;;;8.10;100.00
46267;BME280;31998;48.798;15.066;2022-09-09T01:28:19;95605.47;;;8.09;100.00
46267;BME280;31998;48.798;15.066;2022-09-09T01:30:47;95610.50;;;8.21;100.00
46267;BME280;31998;48.798;15.066;2022-09-09T01:33:15;95610.44;;;8.31;100.00
46267;BME280;31998;48.798;15.066;2022-09-09T01:38:06;95611.56;;;8.20;100.00
46267;BME280;31998;48.798;15.066;2022-09-09T01:40:32;95608.69;;;8.06;100.00
46267;BME280;31998;48.798;15.066;2022-09-09T01:42:58;95604.75;;;7.94;100.00
46267;BME280;31998;48.798;15.066;2022-09-09T01:45:24;95606.03;;;8.01;100.00
46267;BME280;31998;48.798;15.066;2022-09-09T01:47:52;95613.84;;;7.98;100.00
46267;BME280;31998;48.798;15.066;2022-09-09T01:50:19;95611.25;;;7.82;100.00
46267;BME280;31998;48.798;15.066;2022-09-09T01:52:47;95612.56;;;7.85;100.00
46267;BME280;31998;48.798;15.066;2022-09-09T01:55:15;95619.28;;;7.72;100.00
46267;BME280;31998;48.798;15.066;2022-09-09T02:00:37;95611.25;;;7.77;100.00
46267;BME280;31998;48.798;15.066;2022-09-09T02:03:27;95603.19;;;7.82;100.00
46267;BME280;31998;48.798;15.066;2022-09-09T02:06:21;95611.97;;;7.98;100.00
46267;BME280;31998;48.798;15.066;2022-09-09T02:08:52;95593.00;;;7.84;100.00
46267;BME280;31998;48.798;15.066;2022-09-09T02:11:22;95608.47;;;8.03;100.00
46267;BME280;31998;48.798;15.066;2022-09-09T02:13:51;95610.28;;;8.07;100.00
46267;BME280;31998;48.798;15.066;2022-09-09T02:16:24;95614.06;;;8.06;100.00
46267;BME280;31998;48.798;15.066;2022-09-09T02:18:55;95606.41;;;7.84;100.00
46267;BME280;31998;48.798;15.066;2022-09-09T02:21:23;95604.81;;;7.78;100.00
46267;BME280;31998;48.798;15.066;2022-09-09T02:23:50;95601.06;;;7.74;100.00
46267;BME280;31998;48.798;15.066;2022-09-09T02:26:19;95595.97;;;7.78;100.00
46267;BME280;31998;48.798;15.066;2022-09-09T02:28:50;95601.56;;;7.81;100.00
46267;BME280;31998;48.798;15.066;2022-09-09T02:31:20;95608.59;;;7.72;100.00
46267;BME280;31998;48.798;15.066;2022-09-09T02:33:54;95604.81;;;7.73;100.00
46267;BME280;31998;48.798;15.066;2022-09-09T02:36:24;95603.22;;;7.72;100.00
46267;BME280;31998;48.798;15.066;2022-09-09T02:38:51;95604.81;;;7.73;100.00
46267;BME280;31998;48.798;15.066;2022-09-09T02:41:32;95590.91;;;7.71;100.00
46267;BME280;31998;48.798;15.066;2022-09-09T02:43:59;95609.66;;;7.76;100.00
46267;BME280;31998;48.798;15.066;2022-09-09T02:47:37;95605.41;;;7.60;100.00
46267;BME280;31998;48.798;15.066;2022-09-09T02:49:56;95613.44;;;7.55;100.00
46267;BME280;31998;48.798;15.066;2022-09-09T02:52:37;95606.47;;;7.59;100.00
46267;BME280;31998;48.798;15.066;2022-09-09T02:55:09;95613.72;;;7.53;100.00
46267;BME280;31998;48.798;15.066;2022-09-09T02:57:38;95614.28;;;7.45;100.00
46267;BME280;31998;48.798;15.066;2022-09-09T03:00:04;95608.13;;;7.45;100.00
46267;BME280;31998;48.798;15.066;2022-09-09T03:02:30;95595.81;;;7.44;100.00
46267;BME280;31998;48.798;15.066;2022-09-09T03:04:56;95576.53;;;7.42;100.00
46267;BME280;31998;48.798;15.066;2022-09-09T03:07:21;95594.75;;;7.50;100.00
46267;BME280;31998;48.798;15.066;2022-09-09T03:09:47;95592.34;;;7.38;100.00
46267;BME280;31998;48.798;15.066;2022-09-09T03:12:13;95589.94;;;7.37;100.00
46267;BME280;31998;48.798;15.066;2022-09-09T03:14:38;95601.19;;;7.44;100.00
46267;BME280;31998;48.798;15.066;2022-09-09T03:17:04;95594.19;;;7.53;100.00
46267;BME280;31998;48.798;15.066;2022-09-09T03:19:30;95589.91;;;7.52;100.00
46267;BME280;31998;48.798;15.066;2022-09-09T03:21:57;95600.56;;;7.67;100.00
46267;BME280;31998;48.798;15.066;2022-09-09T03:24:22;95596.88;;;7.48;100.00
46267;BME280;31998;48.798;15.066;2022-09-09T03:26:48;95592.09;;;7.29;100.00
46267;BME280;31998;48.798;15.066;2022-09-09T03:29:14;95607.09;;;7.20;100.00
46267;BME280;31998;48.798;15.066;2022-09-09T03:31:40;95593.72;;;7.15;100.00
46267;BME280;31998;48.798;15.066;2022-09-09T03:34:05;95608.19;;;7.24;100.00
46267;BME280;31998;48.798;15.066;2022-09-09T03:36:31;95598.78;;;7.22;100.00
46267;BME280;31998;48.798;15.066;2022-09-09T03:38:57;95601.47;;;7.32;100.00
46267;BME280;31998;48.798;15.066;2022-09-09T03:41:23;95593.09;;;7.49;100.00
46267;BME280;31998;48.798;15.066;2022-09-09T03:43:53;95610.19;;;7.68;100.00
46267;BME280;31998;48.798;15.066;2022-09-09T03:46:20;95601.19;;;7.44;100.00
46267;BME280;31998;48.798;15.066;2022-09-09T03:48:45;95607.63;;;7.38;100.00
46267;BME280;31998;48.798;15.066;2022-09-09T03:51:11;95604.16;;;7.22;100.00
46267;BME280;31998;48.798;15.066;2022-09-09T03:53:37;95596.41;;;7.20;100.00
46267;BME280;31998;48.798;15.066;2022-09-09T03:56:03;95599.59;;;7.27;100.00
46267;BME280;31998;48.798;15.066;2022-09-09T03:58:29;95601.19;;;7.33;100.00
46267;BME280;31998;48.798;15.066;2022-09-09T04:01:07;95604.38;;;7.35;100.00
46267;BME280;31998;48.798;15.066;2022-09-09T04:03:38;95617.50;;;7.42;100.00
46267;BME280;31998;48.798;15.066;2022-09-09T04:06:05;95605.44;;;7.50;100.00
46267;BME280;31998;48.798;15.066;2022-09-09T04:08:33;95609.38;;;7.73;100.00
46267;BME280;31998;48.798;15.066;2022-09-09T04:10:59;95605.41;;;7.55;100.00
46267;BME280;31998;48.798;15.066;2022-09-09T04:13:27;95610.59;;;7.21;100.00
46267;BME280;31998;48.798;15.066;2022-09-09T04:15:54;95615.13;;;7.25;100.00
46267;BME280;31998;48.798;15.066;2022-09-09T04:18:20;95610.31;;;7.22;100.00
46267;BME280;31998;48.798;15.066;2022-09-09T04:20:47;95616.19;;;7.29;100.00
46267;BME280;31998;48.798;15.066;2022-09-09T04:23:13;95609.78;;;7.25;100.00
46267;BME280;31998;48.798;15.066;2022-09-09T04:25:44;95607.34;;;7.34;100.00
46267;BME280;31998;48.798;15.066;2022-09-09T04:28:09;95614.84;;;7.22;100.00
46267;BME280;31998;48.798;15.066;2022-09-09T04:30:35;95618.38;;;7.17;100.00
46267;BME280;31998;48.798;15.066;2022-09-09T04:33:00;95611.94;;;7.13;100.00
46267;BME280;31998;48.798;15.066;2022-09-09T04:35:26;95604.16;;;7.17;100.00
46267;BME280;31998;48.798;15.066;2022-09-09T04:37:52;95610.59;;;7.11;100.00
46267;BME280;31998;48.798;15.066;2022-09-09T04:40:18;95610.34;;;7.12;100.00
46267;BME280;31998;48.798;15.066;2022-09-09T04:42:43;95614.09;;;7.06;100.00
46267;BME280;31998;48.798;15.066;2022-09-09T04:45:09;95609.78;;;7.15;100.00
46267;BME280;31998;48.798;15.066;2022-09-09T04:47:36;95601.19;;;7.28;100.00
46267;BME280;31998;48.798;15.066;2022-09-09T04:50:01;95600.34;;;7.53;100.00
46267;BME280;31998;48.798;15.066;2022-09-09T04:52:27;95595.97;;;7.73;100.00
46267;BME280;31998;48.798;15.066;2022-09-09T04:54:53;95604.25;;;7.81;100.00
46267;BME280;31998;48.798;15.066;2022-09-09T04:57:19;95602.41;;;7.77;100.00
46267;BME280;31998;48.798;15.066;2022-09-09T04:59:44;95615.03;;;7.71;100.00
46267;BME280;31998;48.798;15.066;2022-09-09T05:02:10;95598.38;;;7.79;100.00
46267;BME280;31998;48.798;15.066;2022-09-09T05:04:36;95596.41;;;7.95;100.00
46267;BME280;31998;48.798;15.066;2022-09-09T05:07:01;95599.94;;;7.91;100.00
46267;BME280;31998;48.798;15.066;2022-09-09T05:09:27;95609.00;;;7.95;100.00
46267;BME280;31998;48.798;15.066;2022-09-09T05:11:52;95600.91;;;8.15;100.00
46267;BME280;31998;48.798;15.066;2022-09-09T05:14:18;95608.06;;;8.25;100.00
46267;BME280;31998;48.798;15.066;2022-09-09T05:16:46;95609.88;;;8.39;100.00
46267;BME280;31998;48.798;15.066;2022-09-09T05:19:12;95607.16;;;8.50;100.00
46267;BME280;31998;48.798;15.066;2022-09-09T05:21:38;95598.44;;;8.68;100.00
46267;BME280;31998;48.798;15.066;2022-09-09T05:24:03;95596.22;;;8.80;100.00
46267;BME280;31998;48.798;15.066;2022-09-09T05:26:29;95589.13;;;8.94;100.00
46267;BME280;31998;48.798;15.066;2022-09-09T05:28:55;95598.16;;;9.04;100.00
46267;BME280;31998;48.798;15.066;2022-09-09T05:31:20;95591.38;;;9.11;100.00
46267;BME280;31998;48.798;15.066;2022-09-09T05:33:47;95591.00;;;9.23;100.00
46267;BME280;31998;48.798;15.066;2022-09-09T05:36:16;95595.66;;;9.41;100.00
46267;BME280;31998;48.798;15.066;2022-09-09T05:38:42;95585.31;;;9.54;100.00
46267;BME280;31998;48.798;15.066;2022-09-09T05:41:09;95591.09;;;9.66;100.00
46267;BME280;31998;48.798;15.066;2022-09-09T05:43:36;95598.97;;;9.81;100.00
46267;BME280;31998;48.798;15.066;2022-09-09T05:46:17;95603.41;;;9.91;100.00
46267;BME280;31998;48.798;15.066;2022-09-09T05:48:44;95602.97;;;10.07;100.00
46267;BME280;31998;48.798;15.066;2022-09-09T05:51:18;95605.91;;;10.30;100.00
46267;BME280;31998;48.798;15.066;2022-09-09T05:53:45;95599.84;;;10.43;100.00
46267;BME280;31998;48.798;15.066;2022-09-09T05:56:12;95594.66;;;10.47;100.00
46267;BME280;31998;48.798;15.066;2022-09-09T05:58:41;95596.75;;;10.69;100.00
46267;BME280;31998;48.798;15.066;2022-09-09T06:01:15;95602.06;;;10.74;100.00
46267;BME280;31998;48.798;15.066;2022-09-09T06:03:42;95603.75;;;10.70;100.00
46267;BME280;31998;48.798;15.066;2022-09-09T06:06:12;95596.09;;;10.77;100.00
46267;BME280;31998;48.798;15.066;2022-09-09T06:08:39;95598.06;;;10.90;100.00
46267;BME280;31998;48.798;15.066;2022-09-09T06:11:07;95596.09;;;10.96;100.00
46267;BME280;31998;48.798;15.066;2022-09-09T06:13:33;95599.41;;;11.06;100.00
46267;BME280;31998;48.798;15.066;2022-09-09T06:15:59;95596.69;;;11.06;100.00
46267;BME280;31998;48.798;15.066;2022-09-09T06:18:25;95598.94;;;11.18;100.00
46267;BME280;31998;48.798;15.066;2022-09-09T06:21:01;95601.53;;;11.23;100.00
46267;BME280;31998;48.798;15.066;2022-09-09T06:23:28;95596.88;;;11.29;100.00
46267;BME280;31998;48.798;15.066;2022-09-09T06:26:21;95591.50;;;11.43;100.00
46267;BME280;31998;48.798;15.066;2022-09-09T06:28:49;95588.50;;;11.44;100.00
46267;BME280;31998;48.798;15.066;2022-09-09T06:31:17;95599.00;;;11.59;100.00
46267;BME280;31998;48.798;15.066;2022-09-09T06:33:43;95594.13;;;11.75;100.00
46267;BME280;31998;48.798;15.066;2022-09-09T06:36:15;95593.06;;;11.90;100.00
46267;BME280;31998;48.798;15.066;2022-09-09T06:38:41;95595.03;;;12.12;100.00
46267;BME280;31998;48.798;15.066;2022-09-09T06:41:08;95593.13;;;12.26;100.00
46267;BME280;31998;48.798;15.066;2022-09-09T06:43:34;95585.44;;;12.33;100.00
46267;BME280;31998;48.798;15.066;2022-09-09T06:46:03;95601.34;;;12.57;100.00
46267;BME280;31998;48.798;15.066;2022-09-09T06:48:29;95600.22;;;12.72;100.00
46267;BME280;31998;48.798;15.066;2022-09-09T06:51:05;95590.22;;;12.95;100.00
46267;BME280;31998;48.798;15.066;2022-09-09T06:53:32;95585.91;;;13.16;100.00
46267;BME280;31998;48.798;15.066;2022-09-09T06:56:41;95591.84;;;13.49;100.00
46267;BME280;31998;48.798;15.066;2022-09-09T06:58:49;95596.13;;;13.81;100.00
46267;BME280;31998;48.798;15.066;2022-09-09T07:01:17;95591.72;;;13.94;100.00
46267;BME280;31998;48.798;15.066;2022-09-09T07:03:49;95583.94;;;14.01;100.00
46267;BME280;31998;48.798;15.066;2022-09-09T07:06:18;95595.59;;;14.02;100.00
46267;BME280;31998;48.798;15.066;2022-09-09T07:08:48;95590.84;;;14.16;100.00
46267;BME280;31998;48.798;15.066;2022-09-09T07:11:15;95591.69;;;14.43;100.00
46267;BME280;31998;48.798;15.066;2022-09-09T07:13:40;95594.63;;;14.55;100.00
46267;BME280;31998;48.798;15.066;2022-09-09T07:16:09;95603.53;;;14.64;100.00
46267;BME280;31998;48.798;15.066;2022-09-09T07:18:35;95603.53;;;14.99;100.00
46267;BME280;31998;48.798;15.066;2022-09-09T07:21:02;95603.22;;;15.26;100.00
46267;BME280;31998;48.798;15.066;2022-09-09T07:23:29;95614.81;;;15.53;100.00
46267;BME280;31998;48.798;15.066;2022-09-09T07:25:55;95607.75;;;15.52;100.00
46267;BME280;31998;48.798;15.066;2022-09-09T07:28:21;95607.66;;;15.39;100.00
46267;BME280;31998;48.798;15.066;2022-09-09T07:31:01;95598.66;;;15.73;100.00
46267;BME280;31998;48.798;15.066;2022-09-09T07:33:31;95600.31;;;15.95;100.00
46267;BME280;31998;48.798;15.066;2022-09-09T07:36:26;95601.69;;;15.72;100.00
46267;BME280;31998;48.798;15.066;2022-09-09T07:38:57;95600.41;;;15.69;100.00
46267;BME280;31998;48.798;15.066;2022-09-09T07:41:30;95597.31;;;15.88;100.00
46267;BME280;31998;48.798;15.066;2022-09-09T07:43:58;95599.97;;;16.06;100.00
46267;BME280;31998;48.798;15.066;2022-09-09T07:46:25;95599.28;;;16.09;100.00
46267;BME280;31998;48.798;15.066;2022-09-09T07:48:53;95584.97;;;15.99;100.00
46267;BME280;31998;48.798;15.066;2022-09-09T07:51:25;95596.13;;;16.07;100.00
46267;BME280;31998;48.798;15.066;2022-09-09T07:53:53;95596.50;;;16.26;100.00
46267;BME280;31998;48.798;15.066;2022-09-09T07:56:19;95593.09;;;16.29;100.00
46267;BME280;31998;48.798;15.066;2022-09-09T07:58:47;95598.22;;;16.31;100.00
46267;BME280;31998;48.798;15.066;2022-09-09T08:01:19;95600.19;;;16.51;100.00
46267;BME280;31998;48.798;15.066;2022-09-09T08:03:46;95598.06;;;16.57;100.00
46267;BME280;31998;48.798;15.066;2022-09-09T08:06:12;95591.69;;;16.52;100.00
46267;BME280;31998;48.798;15.066;2022-09-09T08:08:39;95596.09;;;16.66;100.00
46267;BME280;31998;48.798;15.066;2022-09-09T08:11:14;95600.84;;;16.69;100.00
46267;BME280;31998;48.798;15.066;2022-09-09T08:13:41;95590.75;;;16.78;100.00
46267;BME280;31998;48.798;15.066;2022-09-09T08:16:12;95599.81;;;16.82;100.00
46267;BME280;31998;48.798;15.066;2022-09-09T08:18:39;95605.31;;;16.94;100.00
46267;BME280;31998;48.798;15.066;2022-09-09T08:21:11;95603.66;;;16.81;100.00
46267;BME280;31998;48.798;15.066;2022-09-09T08:23:41;95603.91;;;16.67;100.00
46267;BME280;31998;48.798;15.066;2022-09-09T08:26:11;95611.81;;;16.81;100.00
46267;BME280;31998;48.798;15.066;2022-09-09T08:28:36;95617.47;;;16.97;100.00
46267;BME280;31998;48.798;15.066;2022-09-09T08:31:14;95623.97;;;17.04;100.00
46267;BME280;31998;48.798;15.066;2022-09-09T08:33:40;95624.91;;;17.08;100.00
46267;BME280;31998;48.798;15.066;2022-09-09T08:36:09;95626.25;;;17.15;100.00
46267;BME280;31998;48.798;15.066;2022-09-09T08:38:35;95624.41;;;17.06;100.00
46267;BME280;31998;48.798;15.066;2022-09-09T08:43:42;95611.75;;;17.11;100.00
46267;BME280;31998;48.798;15.066;2022-09-09T08:46:19;95621.94;;;17.14;100.00
46267;BME280;31998;48.798;15.066;2022-09-09T08:49:06;95625.41;;;17.23;100.00
46267;BME280;31998;48.798;15.066;2022-09-09T08:51:37;95616.38;;;17.31;100.00
46267;BME280;31998;48.798;15.066;2022-09-09T08:54:03;95617.41;;;17.39;100.00
46267;BME280;31998;48.798;15.066;2022-09-09T08:56:31;95616.88;;;17.45;100.00
46267;BME280;31998;48.798;15.066;2022-09-09T08:58:59;95606.78;;;17.46;100.00
46267;BME280;31998;48.798;15.066;2022-09-09T09:04:46;95614.63;;;17.59;100.00
46267;BME280;31998;48.798;15.066;2022-09-09T09:10:24;95616.91;;;17.57;100.00
46267;BME280;31998;48.798;15.066;2022-09-09T09:12:58;95622.56;;;17.52;100.00
46267;BME280;31998;48.798;15.066;2022-09-09T09:15:38;95609.69;;;17.41;100.00
46267;BME280;31998;48.798;15.066;2022-09-09T09:18:04;95610.09;;;17.51;100.00
46267;BME280;31998;48.798;15.066;2022-09-09T09:20:50;95609.44;;;17.54;100.00
46267;BME280;31998;48.798;15.066;2022-09-09T09:23:24;95599.88;;;17.48;100.00
46267;BME280;31998;48.798;15.066;2022-09-09T09:25:55;95605.56;;;17.55;100.00
46267;BME280;31998;48.798;15.066;2022-09-09T09:28:24;95616.47;;;17.55;100.00
46267;BME280;31998;48.798;15.066;2022-09-09T09:33:38;95608.50;;;17.50;100.00
46267;BME280;31998;48.798;15.066;2022-09-09T09:36:11;95599.94;;;17.40;100.00
46267;BME280;31998;48.798;15.066;2022-09-09T09:39:00;95595.69;;;17.51;100.00
46267;BME280;31998;48.798;15.066;2022-09-09T09:41:40;95582.66;;;17.56;100.00
46267;BME280;31998;48.798;15.066;2022-09-09T09:46:49;95566.63;;;17.76;100.00
46267;BME280;31998;48.798;15.066;2022-09-09T09:49:14;95569.59;;;17.95;100.00
46267;BME280;31998;48.798;15.066;2022-09-09T09:51:39;95561.66;;;18.14;100.00
46267;BME280;31998;48.798;15.066;2022-09-09T09:56:35;95567.78;;;18.24;100.00
46267;BME280;31998;48.798;15.066;2022-09-09T09:59:00;95563.00;;;18.33;100.00
46267;BME280;31998;48.798;15.066;2022-09-09T10:01:28;95589.78;;;18.55;100.00
46267;BME280;31998;48.798;15.066;2022-09-09T10:03:59;95571.69;;;18.63;100.00
46267;BME280;31998;48.798;15.066;2022-09-09T10:06:35;95582.25;;;18.77;100.00
46267;BME280;31998;48.798;15.066;2022-09-09T10:09:02;95584.50;;;18.87;100.00
46267;BME280;31998;48.798;15.066;2022-09-09T10:20:13;95601.91;;;18.58;100.00
46267;BME280;31998;48.798;15.066;2022-09-09T10:22:44;95606.00;;;18.76;100.00
46267;BME280;31998;48.798;15.066;2022-09-09T10:26:41;95603.03;;;18.81;100.00
46267;BME280;31998;48.798;15.066;2022-09-09T10:33:50;95610.63;;;18.88;100.00
46267;BME280;31998;48.798;15.066;2022-09-09T10:36:24;95611.69;;;18.71;100.00
46267;BME280;31998;48.798;15.066;2022-09-09T10:39:03;95617.69;;;18.64;100.00
46267;BME280;31998;48.798;15.066;2022-09-09T10:41:45;95616.25;;;18.67;100.00
46267;BME280;31998;48.798;15.066;2022-09-09T10:44:30;95613.72;;;18.62;100.00
46267;BME280;31998;48.798;15.066;2022-09-09T10:47:17;95613.97;;;18.69;100.00
46267;BME280;31998;48.798;15.066;2022-09-09T10:52:37;95613.63;;;18.70;100.00
46267;BME280;31998;48.798;15.066;2022-09-09T10:57:44;95613.38;;;18.76;100.00
46267;BME280;31998;48.798;15.066;2022-09-09T11:00:22;95627.47;;;18.78;100.00
46267;BME280;31998;48.798;15.066;2022-09-09T11:02:59;95624.75;;;18.65;100.00
46267;BME280;31998;48.798;15.066;2022-09-09T11:05:35;95624.09;;;18.68;100.00
46267;BME280;31998;48.798;15.066;2022-09-09T11:08:11;95616.25;;;18.67;100.00
46267;BME280;31998;48.798;15.066;2022-09-09T11:10:45;95617.69;;;18.77;100.00
46267;BME280;31998;48.798;15.066;2022-09-09T11:13:23;95625.44;;;18.75;100.00
46267;BME280;31998;48.798;15.066;2022-09-09T11:16:00;95631.69;;;18.75;100.00
46267;BME280;31998;48.798;15.066;2022-09-09T11:18:28;95628.75;;;18.68;100.00
46267;BME280;31998;48.798;15.066;2022-09-09T11:20:59;95623.63;;;18.66;100.00
46267;BME280;31998;48.798;15.066;2022-09-09T11:23:48;95623.50;;;18.75;100.00
46267;BME280;31998;48.798;15.066;2022-09-09T11:26:30;95621.78;;;18.70;100.00
46267;BME280;31998;48.798;15.066;2022-09-09T11:29:01;95622.72;;;18.75;100.00
46267;BME280;31998;48.798;15.066;2022-09-09T11:34:20;95625.22;;;18.80;100.00
46267;BME280;31998;48.798;15.066;2022-09-09T11:42:18;95621.13;;;18.74;100.00
46267;BME280;31998;48.798;15.066;2022-09-09T11:44:44;95622.28;;;18.73;100.00
46267;BME280;31998;48.798;15.066;2022-09-09T11:47:25;95625.31;;;18.59;100.00
46267;BME280;31998;48.798;15.066;2022-09-09T11:49:55;95629.06;;;18.54;100.00
46267;BME280;31998;48.798;15.066;2022-09-09T11:52:41;95627.94;;;18.43;100.00
46267;BME280;31998;48.798;15.066;2022-09-09T11:55:30;95624.41;;;18.30;100.00
46267;BME280;31998;48.798;15.066;2022-09-09T12:08:48;95641.56;;;17.40;100.00
46267;BME280;31998;48.798;15.066;2022-09-09T12:11:26;95643.63;;;17.43;100.00
46267;BME280;31998;48.798;15.066;2022-09-09T12:13:56;95638.63;;;17.45;100.00
46267;BME280;31998;48.798;15.066;2022-09-09T12:16:34;95641.59;;;17.52;100.00
46267;BME280;31998;48.798;15.066;2022-09-09T12:19:27;95639.38;;;17.54;100.00
46267;BME280;31998;48.798;15.066;2022-09-09T12:22:13;95633.34;;;17.49;100.00
46267;BME280;31998;48.798;15.066;2022-09-09T12:27:33;95635.31;;;17.60;100.00
46267;BME280;31998;48.798;15.066;2022-09-09T12:30:18;95638.22;;;17.55;100.00
46267;BME280;31998;48.798;15.066;2022-09-09T12:32:46;95636.38;;;17.47;100.00
46267;BME280;31998;48.798;15.066;2022-09-09T12:35:20;95641.69;;;17.44;100.00
46267;BME280;31998;48.798;15.066;2022-09-09T12:37:58;95633.66;;;17.47;100.00
46267;BME280;31998;48.798;15.066;2022-09-09T12:40:28;95629.38;;;17.58;100.00
46267;BME280;31998;48.798;15.066;2022-09-09T12:42:54;95637.47;;;17.67;100.00
46267;BME280;31998;48.798;15.066;2022-09-09T12:45:26;95640.31;;;17.71;100.00
46267;BME280;31998;48.798;15.066;2022-09-09T12:47:57;95634.88;;;17.71;100.00
46267;BME280;31998;48.798;15.066;2022-09-09T12:50:28;95642.44;;;17.65;100.00
46267;BME280;31998;48.798;15.066;2022-09-09T12:52:56;95641.66;;;17.64;100.00
46267;BME280;31998;48.798;15.066;2022-09-09T12:55:32;95631.44;;;17.61;100.00
46267;BME280;31998;48.798;15.066;2022-09-09T12:57:59;95631.44;;;17.61;100.00
46267;BME280;31998;48.798;15.066;2022-09-09T13:00:25;95620.81;;;17.69;100.00
46267;BME280;31998;48.798;15.066;2022-09-09T13:03:14;95624.25;;;17.78;100.00
46267;BME280;31998;48.798;15.066;2022-09-09T13:05:41;95620.19;;;17.84;100.00
46267;BME280;31998;48.798;15.066;2022-09-09T13:08:12;95610.41;;;17.83;100.00
46267;BME280;31998;48.798;15.066;2022-09-09T13:10:43;95622.78;;;17.80;100.00
46267;BME280;31998;48.798;15.066;2022-09-09T13:13:17;95611.06;;;17.68;100.00
46267;BME280;31998;48.798;15.066;2022-09-09T13:15:56;95603.34;;;17.70;100.00
46267;BME280;31998;48.798;15.066;2022-09-09T13:18:24;95611.50;;;17.70;100.00
46267;BME280;31998;48.798;15.066;2022-09-09T13:20:51;95614.97;;;17.58;100.00
46267;BME280;31998;48.798;15.066;2022-09-09T13:23:20;95611.72;;;17.64;100.00
46267;BME280;31998;48.798;15.066;2022-09-09T13:25:57;95605.81;;;17.62;100.00
46267;BME280;31998;48.798;15.066;2022-09-09T13:28:25;95604.00;;;17.67;100.00
46267;BME280;31998;48.798;15.066;2022-09-09T13:30:59;95596.22;;;17.77;100.00
46267;BME280;31998;48.798;15.066;2022-09-09T13:33:33;95602.13;;;17.92;100.00
46267;BME280;31998;48.798;15.066;2022-09-09T13:36:03;95602.47;;;17.78;100.00
46267;BME280;31998;48.798;15.066;2022-09-09T13:38:32;95605.63;;;17.80;100.00
46267;BME280;31998;48.798;15.066;2022-09-09T13:41:03;95605.13;;;17.66;100.00
46267;BME280;31998;48.798;15.066;2022-09-09T13:43:43;95603.81;;;17.72;100.00
46267;BME280;31998;48.798;15.066;2022-09-09T13:46:35;95609.50;;;17.79;100.00
46267;BME280;31998;48.798;15.066;2022-09-09T13:49:22;95609.72;;;17.86;100.00
46267;BME280;31998;48.798;15.066;2022-09-09T13:52:01;95615.06;;;17.82;100.00
46267;BME280;31998;48.798;15.066;2022-09-09T13:54:28;95612.41;;;17.61;100.00
46267;BME280;31998;48.798;15.066;2022-09-09T13:56:56;95625.47;;;17.47;100.00
46267;BME280;31998;48.798;15.066;2022-09-09T13:59:21;95624.06;;;17.29;100.00
46267;BME280;31998;48.798;15.066;2022-09-09T14:01:47;95623.00;;;17.21;100.00
46267;BME280;31998;48.798;15.066;2022-09-09T14:04:14;95618.53;;;17.04;100.00
46267;BME280;31998;48.798;15.066;2022-09-09T14:06:41;95620.53;;;16.95;100.00
46267;BME280;31998;48.798;15.066;2022-09-09T14:09:10;95621.91;;;17.01;100.00
46267;BME280;31998;48.798;15.066;2022-09-09T14:11:35;95613.09;;;17.04;100.00
46267;BME280;31998;48.798;15.066;2022-09-09T14:14:01;95615.34;;;17.02;100.00
46267;BME280;31998;48.798;15.066;2022-09-09T14:16:27;95627.03;;;17.03;100.00
46267;BME280;31998;48.798;15.066;2022-09-09T14:18:53;95622.50;;;16.86;100.00
46267;BME280;31998;48.798;15.066;2022-09-09T14:21:18;95629.72;;;16.82;100.00
46267;BME280;31998;48.798;15.066;2022-09-09T14:23:44;95631.78;;;16.85;100.00
46267;BME280;31998;48.798;15.066;2022-09-09T14:26:09;95627.00;;;16.82;100.00
46267;BME280;31998;48.798;15.066;2022-09-09T14:28:36;95634.25;;;16.78;100.00
46267;BME280;31998;48.798;15.066;2022-09-09T14:31:03;95615.66;;;16.80;100.00
46267;BME280;31998;48.798;15.066;2022-09-09T14:33:29;95619.53;;;16.79;100.00